createdAt,value
2023-05-25T00:01:02.546Z,7.82
2023-05-25T00:03:31.397Z,7.93
2023-05-25T00:05:58.841Z,7.97
2023-05-25T00:08:25.376Z,7.81
2023-05-25T00:10:52.039Z,7.82
2023-05-25T00:13:18.595Z,7.78
2023-05-25T00:15:45.464Z,7.68
2023-05-25T00:18:13.068Z,7.68
2023-05-25T00:20:39.711Z,7.63
2023-05-25T00:23:06.363Z,7.58
2023-05-25T00:25:32.891Z,7.42
2023-05-25T00:27:59.362Z,7.46
2023-05-25T00:30:26.015Z,7.61
2023-05-25T00:32:54.024Z,7.54
2023-05-25T00:35:20.660Z,7.50
2023-05-25T00:37:47.586Z,7.45
2023-05-25T00:40:16.551Z,7.34
2023-05-25T00:42:43.989Z,7.45
2023-05-25T00:45:11.282Z,7.27
2023-05-25T00:47:39.652Z,7.39
2023-05-25T00:50:10.152Z,7.37
2023-05-25T00:52:36.826Z,7.18
2023-05-25T00:55:04.226Z,7.13
2023-05-25T00:57:34.147Z,7.20
2023-05-25T01:00:02.323Z,7.14
2023-05-25T01:02:29.587Z,7.27
2023-05-25T01:05:00.998Z,7.14
2023-05-25T01:07:27.873Z,7.09
2023-05-25T01:09:58.636Z,7.10
2023-05-25T01:12:28.915Z,7.18
2023-05-25T01:14:56.007Z,7.14
2023-05-25T01:17:26.548Z,7.20
2023-05-25T01:20:08.989Z,7.23
2023-05-25T01:22:43.110Z,7.26
2023-05-25T01:25:22.608Z,7.11
2023-05-25T01:27:57.153Z,7.30
2023-05-25T01:30:26.369Z,7.19
2023-05-25T01:32:54.454Z,7.15
2023-05-25T01:35:21.810Z,7.04
2023-05-25T01:37:51.620Z,7.01
2023-05-25T01:40:18.122Z,6.95
2023-05-25T01:42:44.673Z,7.14
2023-05-25T01:45:13.425Z,7.15
2023-05-25T01:48:03.444Z,7.03
2023-05-25T01:50:40.776Z,7.08
2023-05-25T01:53:13.634Z,7.24
2023-05-25T01:55:49.959Z,7.18
2023-05-25T01:58:18.425Z,6.85
2023-05-25T02:00:48.080Z,6.91
2023-05-25T02:03:15.321Z,6.78
2023-05-25T02:05:42.405Z,6.65
2023-05-25T02:08:09.138Z,6.60
2023-05-25T02:10:35.709Z,6.65
2023-05-25T02:13:02.268Z,6.77
2023-05-25T02:15:32.971Z,6.75
2023-05-25T02:18:00.979Z,6.86
2023-05-25T02:20:30.711Z,6.84
2023-05-25T02:22:57.349Z,6.68
2023-05-25T02:25:23.831Z,6.62
2023-05-25T02:27:50.885Z,6.77
2023-05-25T02:30:18.162Z,6.56
2023-05-25T02:32:44.800Z,6.27
2023-05-25T02:35:12.369Z,6.19
2023-05-25T02:37:39.220Z,6.03
2023-05-25T02:40:07.970Z,6.06
2023-05-25T02:42:34.517Z,6.30
2023-05-25T02:45:01.126Z,6.45
2023-05-25T02:47:29.155Z,6.32
2023-05-25T02:49:55.756Z,6.11
2023-05-25T02:52:22.632Z,6.20
2023-05-25T02:54:49.385Z,5.91
2023-05-25T02:57:23.043Z,5.90
2023-05-25T02:59:51.077Z,5.94
2023-05-25T03:02:18.522Z,6.22
2023-05-25T03:04:46.042Z,6.25
2023-05-25T03:07:12.869Z,6.31
2023-05-25T03:09:39.645Z,6.33
2023-05-25T03:12:06.551Z,6.40
2023-05-25T03:14:33.176Z,6.41
2023-05-25T03:17:04.286Z,6.33
2023-05-25T03:19:32.332Z,6.31
2023-05-25T03:21:59.394Z,6.28
2023-05-25T03:24:26.980Z,6.32
2023-05-25T03:26:56.115Z,6.26
2023-05-25T03:29:22.761Z,6.39
2023-05-25T03:31:49.378Z,6.40
2023-05-25T03:34:17.678Z,6.38
2023-05-25T03:36:45.981Z,6.40
2023-05-25T03:39:13.661Z,6.47
2023-05-25T03:41:40.268Z,6.19
2023-05-25T03:44:07.688Z,6.12
2023-05-25T03:46:34.346Z,6.28
2023-05-25T03:49:00.985Z,6.20
2023-05-25T03:51:29.345Z,6.28
2023-05-25T03:53:56.040Z,6.43
2023-05-25T03:56:23.924Z,6.48
2023-05-25T03:58:50.431Z,6.55
2023-05-25T04:01:18.350Z,6.57
2023-05-25T04:03:44.978Z,6.68
2023-05-25T04:06:11.673Z,6.73
2023-05-25T04:08:40.942Z,6.77
2023-05-25T04:11:07.457Z,6.83
2023-05-25T04:13:36.303Z,6.80
2023-05-25T04:16:03.541Z,6.91
2023-05-25T04:18:32.312Z,7.01
2023-05-25T04:20:59.579Z,7.08
2023-05-25T04:23:26.790Z,6.84
2023-05-25T04:25:54.416Z,7.05
2023-05-25T04:28:20.933Z,7.01
2023-05-25T04:30:59.562Z,6.82
2023-05-25T04:33:38.684Z,6.88
2023-05-25T04:36:38.742Z,7.19
2023-05-25T04:39:07.361Z,7.16
2023-05-25T04:41:37.759Z,7.31
2023-05-25T04:44:10.561Z,7.38
2023-05-25T04:46:49.042Z,7.57
2023-05-25T04:49:21.664Z,7.79
2023-05-25T04:51:48.491Z,7.88
2023-05-25T04:54:15.801Z,8.13
2023-05-25T04:56:43.036Z,8.39
2023-05-25T04:59:09.795Z,8.59
2023-05-25T05:01:40.870Z,8.70
2023-05-25T05:04:09.010Z,8.87
2023-05-25T05:06:36.699Z,8.95
2023-05-25T05:09:03.703Z,9.22
2023-05-25T05:11:30.638Z,9.32
2023-05-25T05:13:59.236Z,9.45
2023-05-25T05:16:25.986Z,10.04
2023-05-25T05:18:53.285Z,10.53
2023-05-25T05:21:21.402Z,10.54
2023-05-25T05:23:49.591Z,10.45
2023-05-25T05:26:16.516Z,10.73
2023-05-25T05:28:43.084Z,11.39
2023-05-25T05:31:12.121Z,12.57
2023-05-25T05:33:39.500Z,13.77
2023-05-25T05:36:06.715Z,14.27
2023-05-25T05:38:38.792Z,14.15
2023-05-25T05:41:13.287Z,14.24
2023-05-25T05:43:42.388Z,14.95
2023-05-25T05:46:10.548Z,15.19
2023-05-25T05:48:37.971Z,14.89
2023-05-25T05:51:05.864Z,15.78
2023-05-25T05:53:33.705Z,15.53
2023-05-25T05:56:00.312Z,15.45
2023-05-25T05:58:26.899Z,15.90
2023-05-25T06:00:54.597Z,15.60
2023-05-25T06:03:21.635Z,16.54
2023-05-25T06:05:48.423Z,17.01
2023-05-25T06:08:16.098Z,16.43
2023-05-25T06:10:42.830Z,16.63
2023-05-25T06:13:09.487Z,16.64
2023-05-25T06:15:36.192Z,17.39
2023-05-25T06:18:07.858Z,17.87
2023-05-25T06:20:35.547Z,17.70
2023-05-25T06:23:02.395Z,17.14
2023-05-25T06:25:29.156Z,17.24
2023-05-25T06:27:57.310Z,17.45
2023-05-25T06:30:24.021Z,17.86
2023-05-25T06:32:51.969Z,18.00
2023-05-25T06:35:25.020Z,18.21
2023-05-25T06:37:52.822Z,18.87
2023-05-25T06:40:20.425Z,19.57
2023-05-25T06:42:47.054Z,19.85
2023-05-25T06:45:37.960Z,20.49
2023-05-25T06:48:05.333Z,19.96
2023-05-25T06:50:31.923Z,19.86
2023-05-25T06:53:00.336Z,19.48
2023-05-25T06:55:27.055Z,19.84
2023-05-25T06:57:53.602Z,19.75
2023-05-25T07:00:21.472Z,20.79
2023-05-25T07:02:48.068Z,20.45
2023-05-25T07:05:15.129Z,20.38
2023-05-25T07:07:41.819Z,20.46
2023-05-25T07:10:09.167Z,20.35
2023-05-25T07:12:35.748Z,20.67
2023-05-25T07:15:02.427Z,20.68
2023-05-25T07:17:28.989Z,21.16
2023-05-25T07:19:55.649Z,21.52
2023-05-25T07:22:23.645Z,20.49
2023-05-25T07:24:50.300Z,20.82
2023-05-25T07:27:16.936Z,22.44
2023-05-25T07:29:43.444Z,22.22
2023-05-25T07:32:09.938Z,22.81
2023-05-25T07:34:36.513Z,22.29
2023-05-25T07:37:03.107Z,23.26
2023-05-25T07:39:29.689Z,22.39
2023-05-25T07:41:56.177Z,22.38
2023-05-25T07:44:22.671Z,22.12
2023-05-25T07:46:49.226Z,23.07
2023-05-25T07:49:16.343Z,22.89
2023-05-25T07:51:44.733Z,22.59
2023-05-25T07:54:11.848Z,22.82
2023-05-25T07:56:38.963Z,22.29
2023-05-25T07:59:06.087Z,22.75
2023-05-25T08:01:32.593Z,22.33
2023-05-25T08:03:59.398Z,23.39
2023-05-25T08:06:26.065Z,23.09
2023-05-25T08:08:52.595Z,22.74
2023-05-25T08:11:23.954Z,23.18
2023-05-25T08:13:51.116Z,22.10
2023-05-25T08:16:18.874Z,22.91
2023-05-25T08:18:46.930Z,22.70
2023-05-25T08:21:13.814Z,22.58
2023-05-25T08:23:42.386Z,22.45
2023-05-25T08:26:25.975Z,22.51
2023-05-25T08:28:57.015Z,21.16
2023-05-25T08:31:23.628Z,20.70
2023-05-25T08:33:50.183Z,20.51
2023-05-25T08:36:16.701Z,20.49
2023-05-25T08:38:43.207Z,20.31
2023-05-25T08:41:12.018Z,19.83
2023-05-25T08:43:38.601Z,19.57
2023-05-25T08:46:07.054Z,18.98
2023-05-25T08:48:41.856Z,19.14
2023-05-25T08:51:11.677Z,19.13
2023-05-25T08:53:43.410Z,18.75
2023-05-25T08:56:34.248Z,18.14
2023-05-25T08:59:14.576Z,18.07
2023-05-25T09:01:46.012Z,18.06
2023-05-25T09:04:19.482Z,17.98
2023-05-25T09:06:57.180Z,18.14
2023-05-25T09:09:35.104Z,17.99
2023-05-25T09:12:02.417Z,18.11
2023-05-25T09:14:29.051Z,18.36
2023-05-25T09:16:55.654Z,18.44
2023-05-25T09:19:22.192Z,18.66
2023-05-25T09:21:49.394Z,18.61
2023-05-25T09:24:18.498Z,18.74
2023-05-25T09:26:48.796Z,18.63
2023-05-25T09:29:16.531Z,18.51
2023-05-25T09:31:43.388Z,18.32
2023-05-25T09:34:14.132Z,18.40
2023-05-25T09:36:41.925Z,18.24
2023-05-25T09:39:12.635Z,18.62
2023-05-25T09:41:43.210Z,18.03
2023-05-25T09:44:11.706Z,18.42
2023-05-25T09:46:39.301Z,18.43
2023-05-25T09:49:08.811Z,18.19
2023-05-25T09:51:36.629Z,17.77
2023-05-25T09:54:04.897Z,18.35
2023-05-25T09:56:33.510Z,18.72
2023-05-25T09:59:00.162Z,18.61
2023-05-25T10:01:27.313Z,18.56
2023-05-25T10:04:04.176Z,18.46
2023-05-25T10:06:33.437Z,18.66
2023-05-25T10:09:01.315Z,18.86
2023-05-25T10:11:29.232Z,18.50
2023-05-25T10:13:56.737Z,18.66
2023-05-25T10:16:29.272Z,18.79
2023-05-25T10:19:34.678Z,18.46
2023-05-25T10:22:19.974Z,18.71
2023-05-25T10:24:58.568Z,18.67
2023-05-25T10:27:29.450Z,18.87
2023-05-25T10:29:57.618Z,19.12
2023-05-25T10:32:24.830Z,19.00
2023-05-25T10:34:52.578Z,19.01
2023-05-25T10:37:19.661Z,18.97
2023-05-25T10:39:46.515Z,19.24
2023-05-25T10:42:13.295Z,19.64
2023-05-25T10:44:42.089Z,19.30
2023-05-25T10:47:09.456Z,19.68
2023-05-25T10:49:53.307Z,19.29
2023-05-25T10:52:20.470Z,19.75
2023-05-25T10:54:48.350Z,20.49
2023-05-25T10:57:20.459Z,20.71
2023-05-25T10:59:59.604Z,20.65
2023-05-25T11:02:29.938Z,20.83
2023-05-25T11:05:28.875Z,21.21
2023-05-25T11:07:57.046Z,20.77
2023-05-25T11:10:51.041Z,20.71
2023-05-25T11:13:41.303Z,19.93
2023-05-25T11:16:27.093Z,20.37
2023-05-25T11:18:57.883Z,20.46
2023-05-25T11:21:27.416Z,19.98
2023-05-25T11:24:06.672Z,20.02
2023-05-25T11:26:34.660Z,19.87
2023-05-25T11:29:12.020Z,20.02
2023-05-25T11:31:42.470Z,20.61
2023-05-25T11:34:12.211Z,21.11
2023-05-25T11:36:39.188Z,21.28
2023-05-25T11:39:11.445Z,21.57
2023-05-25T11:41:55.344Z,22.35
2023-05-25T11:44:33.618Z,23.72
2023-05-25T11:47:14.759Z,23.98
2023-05-25T11:49:42.392Z,23.94
2023-05-25T11:52:09.435Z,24.81
2023-05-25T11:54:36.482Z,24.52
2023-05-25T11:57:03.644Z,24.18
2023-05-25T11:59:32.403Z,23.26
2023-05-25T12:02:04.166Z,25.04
2023-05-25T12:04:34.891Z,24.71
2023-05-25T12:07:06.362Z,23.78
2023-05-25T12:09:33.582Z,23.50
2023-05-25T12:12:03.062Z,24.53
2023-05-25T12:14:30.180Z,25.04
2023-05-25T12:16:57.870Z,25.25
2023-05-25T12:19:24.637Z,23.79
2023-05-25T12:21:51.795Z,23.80
2023-05-25T12:24:19.085Z,22.87
2023-05-25T12:26:49.613Z,23.47
2023-05-25T12:29:16.545Z,23.98
2023-05-25T12:31:43.348Z,24.00
2023-05-25T12:34:18.079Z,24.50
2023-05-25T12:36:54.647Z,25.01
2023-05-25T12:39:24.639Z,25.85
2023-05-25T12:41:54.756Z,25.83
2023-05-25T12:44:28.778Z,24.66
2023-05-25T12:46:56.536Z,24.73
2023-05-25T12:49:34.275Z,23.23
2023-05-25T12:52:02.752Z,23.64
2023-05-25T12:54:46.452Z,22.96
2023-05-25T12:57:14.842Z,22.73
2023-05-25T12:59:43.595Z,22.14
2023-05-25T13:02:10.944Z,22.21
2023-05-25T13:04:39.402Z,22.23
2023-05-25T13:07:08.483Z,22.23
2023-05-25T13:09:35.191Z,22.49
2023-05-25T13:12:04.649Z,22.18
2023-05-25T13:14:31.260Z,21.68
2023-05-25T13:16:57.870Z,21.64
2023-05-25T13:19:25.822Z,21.52
2023-05-25T13:21:53.095Z,21.80
2023-05-25T13:24:19.756Z,21.60
2023-05-25T13:26:48.205Z,21.54
2023-05-25T13:29:16.532Z,21.45
2023-05-25T13:31:43.550Z,21.37
2023-05-25T13:34:10.245Z,21.39
2023-05-25T13:36:36.759Z,21.05
2023-05-25T13:39:05.232Z,21.03
2023-05-25T13:41:31.817Z,21.02
2023-05-25T13:43:58.363Z,20.69
2023-05-25T13:46:34.184Z,20.83
2023-05-25T13:49:02.015Z,20.75
2023-05-25T13:51:28.513Z,21.13
2023-05-25T13:53:55.047Z,21.16
2023-05-25T13:56:22.273Z,20.79
2023-05-25T13:58:48.794Z,20.87
2023-05-25T14:01:15.651Z,20.78
2023-05-25T14:03:42.687Z,20.84
2023-05-25T14:06:09.435Z,20.93
2023-05-25T14:08:35.977Z,20.81
2023-05-25T14:11:02.980Z,20.89
2023-05-25T14:13:29.953Z,20.99
2023-05-25T14:15:56.644Z,20.68
2023-05-25T14:18:23.292Z,21.00
2023-05-25T14:20:50.013Z,20.72
2023-05-25T14:23:18.426Z,20.60
2023-05-25T14:25:46.609Z,20.74
2023-05-25T14:28:13.496Z,20.70
2023-05-25T14:30:40.103Z,20.61
2023-05-25T14:33:06.726Z,20.72
2023-05-25T14:35:33.312Z,20.57
2023-05-25T14:37:59.909Z,20.55
2023-05-25T14:40:26.516Z,20.72
2023-05-25T14:42:55.487Z,20.75
2023-05-25T14:45:22.148Z,20.61
2023-05-25T14:47:49.055Z,20.44
2023-05-25T14:50:15.956Z,20.40
2023-05-25T14:52:42.985Z,20.59
2023-05-25T14:55:09.891Z,20.54
2023-05-25T14:57:36.712Z,20.50
2023-05-25T15:00:04.412Z,20.56
2023-05-25T15:02:31.187Z,20.66
2023-05-25T15:04:58.585Z,20.68
2023-05-25T15:07:25.239Z,20.45
2023-05-25T15:09:51.863Z,20.22
2023-05-25T15:12:18.383Z,20.27
2023-05-25T15:14:44.869Z,20.26
2023-05-25T15:17:11.452Z,20.50
2023-05-25T15:19:38.005Z,20.33
2023-05-25T15:22:04.813Z,20.39
2023-05-25T15:24:31.492Z,20.39
2023-05-25T15:26:58.097Z,20.46
2023-05-25T15:29:24.692Z,20.31
2023-05-25T15:31:53.627Z,20.36
2023-05-25T15:34:21.577Z,20.25
2023-05-25T15:36:48.472Z,20.25
2023-05-25T15:39:15.591Z,20.18
2023-05-25T15:41:43.008Z,20.02
2023-05-25T15:44:12.577Z,20.03
2023-05-25T15:46:40.452Z,20.00
2023-05-25T15:49:11.258Z,19.95
2023-05-25T15:51:41.431Z,19.77
2023-05-25T15:54:10.475Z,19.84
2023-05-25T15:56:38.599Z,19.95
2023-05-25T15:59:05.863Z,19.94
2023-05-25T16:01:34.474Z,19.93
2023-05-25T16:04:01.457Z,19.91
2023-05-25T16:06:28.103Z,19.87
2023-05-25T16:08:54.776Z,20.08
2023-05-25T16:11:22.133Z,19.99
2023-05-25T16:13:48.611Z,19.99
2023-05-25T16:16:15.355Z,19.99
2023-05-25T16:18:41.957Z,19.84
2023-05-25T16:21:08.492Z,19.81
2023-05-25T16:23:35.017Z,19.96
2023-05-25T16:26:01.540Z,19.78
2023-05-25T16:28:28.072Z,19.71
2023-05-25T16:30:54.652Z,19.80
2023-05-25T16:33:21.147Z,19.74
2023-05-25T16:35:47.803Z,19.65
2023-05-25T16:38:14.316Z,19.73
2023-05-25T16:40:40.864Z,19.69
2023-05-25T16:43:07.457Z,19.62
2023-05-25T16:45:34.376Z,19.62
2023-05-25T16:48:00.913Z,19.59
2023-05-25T16:50:27.445Z,19.58
2023-05-25T16:52:53.992Z,19.51
2023-05-25T16:55:21.296Z,19.27
2023-05-25T16:57:47.874Z,19.40
2023-05-25T17:00:14.957Z,19.52
2023-05-25T17:02:42.592Z,19.49
2023-05-25T17:05:09.767Z,19.36
2023-05-25T17:07:37.561Z,19.35
2023-05-25T17:10:04.554Z,19.33
2023-05-25T17:12:31.411Z,19.25
2023-05-25T17:14:57.897Z,19.32
2023-05-25T17:17:27.946Z,19.30
2023-05-25T17:19:54.875Z,19.24
2023-05-25T17:22:21.599Z,19.15
2023-05-25T17:24:48.112Z,19.21
2023-05-25T17:27:14.646Z,19.20
2023-05-25T17:29:41.957Z,19.15
2023-05-25T17:32:11.146Z,19.18
2023-05-25T17:34:37.776Z,19.07
2023-05-25T17:37:04.530Z,19.08
2023-05-25T17:39:31.496Z,18.93
2023-05-25T17:41:58.326Z,18.96
2023-05-25T17:44:26.014Z,18.95
2023-05-25T17:46:52.676Z,18.94
2023-05-25T17:49:19.276Z,18.92
2023-05-25T17:51:46.060Z,18.84
2023-05-25T17:54:18.595Z,18.77
2023-05-25T17:56:46.409Z,18.84
2023-05-25T17:59:13.213Z,18.90
2023-05-25T18:01:40.735Z,18.73
2023-05-25T18:04:07.589Z,18.71
2023-05-25T18:06:34.647Z,18.63
2023-05-25T18:09:01.447Z,18.45
2023-05-25T18:11:32.312Z,18.36
2023-05-25T18:14:04.869Z,18.22
2023-05-25T18:16:31.762Z,18.07
2023-05-25T18:18:58.598Z,18.15
2023-05-25T18:21:25.370Z,17.95
2023-05-25T18:23:52.012Z,17.72
2023-05-25T18:26:18.501Z,17.74
2023-05-25T18:28:45.365Z,17.71
2023-05-25T18:31:12.369Z,17.55
2023-05-25T18:33:44.678Z,17.39
2023-05-25T18:36:11.612Z,17.26
2023-05-25T18:38:38.238Z,17.22
2023-05-25T18:41:05.026Z,17.05
2023-05-25T18:43:31.636Z,17.14
2023-05-25T18:45:58.230Z,17.29
2023-05-25T18:48:25.860Z,17.21
2023-05-25T18:50:52.511Z,17.08
2023-05-25T18:53:19.056Z,16.96
2023-05-25T18:55:45.930Z,16.77
2023-05-25T18:58:13.122Z,16.74
2023-05-25T19:00:40.204Z,16.66
2023-05-25T19:03:07.052Z,16.47
2023-05-25T19:05:33.907Z,16.22
2023-05-25T19:08:00.649Z,16.25
2023-05-25T19:10:27.666Z,16.14
2023-05-25T19:12:54.307Z,16.06
2023-05-25T19:15:21.162Z,15.85
2023-05-25T19:17:48.097Z,15.75
2023-05-25T19:20:18.214Z,15.64
2023-05-25T19:22:45.061Z,15.64
2023-05-25T19:25:11.841Z,15.45
2023-05-25T19:27:38.817Z,15.35
2023-05-25T19:30:05.994Z,15.14
2023-05-25T19:32:35.837Z,14.98
2023-05-25T19:35:02.640Z,14.91
2023-05-25T19:37:29.129Z,14.80
2023-05-25T19:39:55.683Z,14.74
2023-05-25T19:42:22.204Z,14.59
2023-05-25T19:44:48.768Z,14.45
2023-05-25T19:47:15.405Z,14.32
2023-05-25T19:49:42.720Z,14.16
2023-05-25T19:52:09.251Z,14.20
2023-05-25T19:54:35.924Z,14.01
2023-05-25T19:57:02.815Z,13.92
2023-05-25T19:59:30.227Z,13.88
2023-05-25T20:01:57.040Z,13.84
2023-05-25T20:04:23.804Z,13.73
2023-05-25T20:06:50.790Z,13.61
2023-05-25T20:09:17.720Z,13.50
2023-05-25T20:11:44.272Z,13.51
2023-05-25T20:14:10.788Z,13.62
2023-05-25T20:16:37.429Z,13.79
2023-05-25T20:19:07.311Z,13.94
2023-05-25T20:21:34.302Z,13.63
2023-05-25T20:24:01.262Z,13.53
2023-05-25T20:26:27.926Z,13.43
2023-05-25T20:28:54.459Z,13.42
2023-05-25T20:31:21.120Z,13.39
2023-05-25T20:33:47.737Z,13.26
2023-05-25T20:36:15.662Z,13.26
2023-05-25T20:38:45.092Z,13.34
2023-05-25T20:41:12.059Z,13.39
2023-05-25T20:43:38.559Z,13.38
2023-05-25T20:46:07.547Z,13.34
2023-05-25T20:48:34.237Z,13.41
2023-05-25T20:51:00.833Z,13.33
2023-05-25T20:53:27.385Z,13.28
2023-05-25T20:55:53.857Z,13.31
2023-05-25T20:58:20.396Z,13.31
2023-05-25T21:00:46.877Z,13.32
2023-05-25T21:03:13.435Z,13.37
2023-05-25T21:05:40.091Z,13.41
2023-05-25T21:08:06.781Z,13.44
2023-05-25T21:10:33.361Z,13.37
2023-05-25T21:12:59.899Z,13.44
2023-05-25T21:15:26.936Z,13.56
2023-05-25T21:17:53.532Z,13.58
2023-05-25T21:20:20.526Z,13.29
2023-05-25T21:22:47.123Z,13.36
2023-05-25T21:25:13.649Z,13.48
2023-05-25T21:27:40.385Z,13.43
2023-05-25T21:30:07.509Z,13.46
2023-05-25T21:32:34.061Z,13.50
2023-05-25T21:35:00.742Z,13.51
2023-05-25T21:37:28.037Z,13.27
2023-05-25T21:39:54.548Z,13.18
2023-05-25T21:42:21.062Z,13.12
2023-05-25T21:44:47.623Z,12.96
2023-05-25T21:47:14.311Z,12.98
2023-05-25T21:49:40.966Z,12.90
2023-05-25T21:52:18.068Z,12.85
2023-05-25T21:54:44.575Z,12.70
2023-05-25T21:57:11.084Z,12.64
2023-05-25T21:59:37.589Z,12.40
2023-05-25T22:02:04.385Z,12.29
2023-05-25T22:04:31.014Z,12.31
2023-05-25T22:06:57.695Z,12.21
2023-05-25T22:09:24.207Z,12.16
2023-05-25T22:11:50.770Z,12.17
2023-05-25T22:14:17.274Z,12.05
2023-05-25T22:16:43.802Z,11.93
2023-05-25T22:19:10.775Z,11.82
2023-05-25T22:21:37.872Z,11.83
2023-05-25T22:24:04.499Z,11.79
2023-05-25T22:26:30.991Z,11.70
2023-05-25T22:28:57.532Z,11.65
2023-05-25T22:31:25.647Z,11.52
2023-05-25T22:33:52.274Z,11.37
2023-05-25T22:36:18.800Z,11.43
2023-05-25T22:38:46.609Z,11.34
2023-05-25T22:41:13.110Z,11.47
2023-05-25T22:43:39.612Z,11.39
2023-05-25T22:46:06.160Z,11.09
2023-05-25T22:48:32.708Z,11.03
2023-05-25T22:50:59.174Z,10.98
2023-05-25T22:53:25.665Z,10.87
2023-05-25T22:55:52.318Z,10.83
2023-05-25T22:58:19.014Z,10.70
2023-05-25T23:00:45.660Z,10.71
2023-05-25T23:03:12.292Z,10.78
2023-05-25T23:05:38.977Z,10.73
2023-05-25T23:08:05.672Z,10.53
2023-05-25T23:10:32.194Z,10.57
2023-05-25T23:12:58.674Z,10.50
2023-05-25T23:15:25.191Z,10.71
2023-05-25T23:17:51.799Z,10.76
2023-05-25T23:20:18.448Z,10.66
2023-05-25T23:22:44.967Z,10.84
2023-05-25T23:25:11.491Z,10.80
2023-05-25T23:27:38.003Z,10.75
2023-05-25T23:30:06.735Z,10.46
2023-05-25T23:32:33.452Z,10.21
2023-05-25T23:34:59.975Z,10.08
2023-05-25T23:37:28.299Z,10.16
2023-05-25T23:39:54.861Z,10.00
2023-05-25T23:42:21.482Z,9.97
2023-05-25T23:44:48.004Z,10.02
2023-05-25T23:47:14.656Z,9.97
2023-05-25T23:49:41.153Z,9.98
2023-05-25T23:52:07.829Z,10.11
2023-05-25T23:54:34.421Z,10.24
2023-05-25T23:57:01.167Z,10.27
2023-05-25T23:59:27.673Z,10.24
